createdAt,value
2023-03-29T00:01:10.242Z,2.95
2023-03-29T00:03:39.694Z,2.90
2023-03-29T00:06:08.685Z,2.98
2023-03-29T00:08:39.065Z,3.05
2023-03-29T00:11:07.758Z,2.83
2023-03-29T00:13:36.832Z,2.81
2023-03-29T00:16:06.016Z,2.79
2023-03-29T00:18:34.532Z,2.85
2023-03-29T00:21:03.842Z,2.79
2023-03-29T00:23:32.518Z,2.97
2023-03-29T00:26:02.388Z,2.97
2023-03-29T00:28:31.359Z,3.07
2023-03-29T00:31:08.314Z,3.18
2023-03-29T00:33:37.117Z,3.23
2023-03-29T00:36:07.479Z,2.93
2023-03-29T00:38:37.327Z,2.94
2023-03-29T00:41:09.460Z,2.75
2023-03-29T00:44:03.643Z,3.02
2023-03-29T00:46:35.054Z,2.84
2023-03-29T00:49:08.892Z,2.97
2023-03-29T00:51:39.556Z,2.95
2023-03-29T00:54:15.173Z,3.00
2023-03-29T00:56:49.797Z,3.02
2023-03-29T00:59:22.581Z,3.00
2023-03-29T01:01:54.912Z,3.02
2023-03-29T01:04:29.719Z,3.12
2023-03-29T01:07:04.645Z,3.03
2023-03-29T01:09:57.603Z,2.85
2023-03-29T01:12:36.015Z,2.88
2023-03-29T01:15:08.397Z,3.07
2023-03-29T01:17:37.544Z,3.11
2023-03-29T01:20:15.364Z,3.14
2023-03-29T01:23:08.655Z,3.05
2023-03-29T01:25:46.783Z,3.08
2023-03-29T01:28:19.332Z,3.10
2023-03-29T01:30:53.234Z,3.30
2023-03-29T01:33:26.778Z,3.25
2023-03-29T01:36:01.759Z,3.17
2023-03-29T01:38:35.958Z,3.03
2023-03-29T01:41:05.314Z,3.14
2023-03-29T01:43:40.344Z,3.20
2023-03-29T01:46:16.078Z,3.11
2023-03-29T01:48:52.550Z,2.85
2023-03-29T01:51:26.869Z,2.62
2023-03-29T01:54:02.757Z,2.83
2023-03-29T01:56:37.605Z,2.98
2023-03-29T01:59:11.911Z,2.88
2023-03-29T02:01:49.334Z,2.74
2023-03-29T02:04:23.910Z,2.77
2023-03-29T02:06:54.703Z,2.82
2023-03-29T02:09:23.857Z,2.77
2023-03-29T02:11:54.136Z,2.77
2023-03-29T02:14:24.831Z,2.85
2023-03-29T02:16:53.825Z,2.79
2023-03-29T02:19:24.071Z,2.72
2023-03-29T02:22:01.970Z,2.89
2023-03-29T02:24:33.124Z,2.87
2023-03-29T02:27:02.386Z,2.73
2023-03-29T02:29:32.689Z,2.78
2023-03-29T02:32:08.045Z,2.67
2023-03-29T02:34:40.575Z,2.75
2023-03-29T02:37:15.713Z,3.07
2023-03-29T02:39:44.430Z,3.14
2023-03-29T02:42:14.951Z,3.44
2023-03-29T02:44:46.912Z,3.12
2023-03-29T02:47:20.924Z,3.09
2023-03-29T02:49:49.456Z,2.88
2023-03-29T02:52:23.968Z,2.84
2023-03-29T02:54:55.665Z,2.73
2023-03-29T02:57:26.530Z,2.83
2023-03-29T02:59:58.463Z,2.86
2023-03-29T03:02:27.877Z,2.93
2023-03-29T03:04:57.562Z,3.00
2023-03-29T03:07:26.093Z,2.95
2023-03-29T03:09:54.525Z,2.87
2023-03-29T03:12:22.979Z,2.85
2023-03-29T03:14:51.450Z,3.75
2023-03-29T03:17:23.130Z,3.62
2023-03-29T03:19:53.238Z,3.75
2023-03-29T03:22:21.767Z,3.54
2023-03-29T03:24:50.196Z,3.57
2023-03-29T03:27:19.025Z,3.31
2023-03-29T03:29:48.660Z,3.69
2023-03-29T03:32:17.540Z,3.45
2023-03-29T03:34:47.378Z,3.53
2023-03-29T03:37:15.826Z,3.49
2023-03-29T03:39:44.315Z,3.39
2023-03-29T03:42:12.980Z,3.18
2023-03-29T03:44:41.637Z,3.45
2023-03-29T03:47:10.093Z,3.31
2023-03-29T03:49:38.713Z,3.18
2023-03-29T03:52:08.949Z,3.11
2023-03-29T03:54:37.389Z,3.10
2023-03-29T03:57:06.337Z,3.26
2023-03-29T03:59:34.753Z,3.22
2023-03-29T04:02:03.230Z,3.24
2023-03-29T04:04:31.883Z,3.40
2023-03-29T04:07:02.860Z,3.16
2023-03-29T04:09:33.793Z,3.23
2023-03-29T04:12:03.074Z,3.19
2023-03-29T04:14:31.766Z,2.90
2023-03-29T04:17:00.219Z,2.75
2023-03-29T04:19:28.720Z,3.04
2023-03-29T04:21:57.146Z,2.92
2023-03-29T04:24:25.752Z,2.85
2023-03-29T04:26:55.617Z,2.80
2023-03-29T04:29:24.090Z,2.93
2023-03-29T04:31:53.034Z,2.81
2023-03-29T04:34:21.636Z,2.74
2023-03-29T04:36:50.890Z,2.71
2023-03-29T04:39:19.384Z,2.81
2023-03-29T04:41:48.736Z,2.87
2023-03-29T04:44:18.987Z,2.79
2023-03-29T04:46:47.575Z,2.81
2023-03-29T04:49:16.817Z,2.81
2023-03-29T04:51:45.287Z,2.82
2023-03-29T04:54:13.758Z,2.91
2023-03-29T04:56:42.646Z,2.67
2023-03-29T04:59:11.144Z,3.05
2023-03-29T05:01:42.057Z,2.75
2023-03-29T05:04:12.633Z,2.72
2023-03-29T05:06:41.989Z,2.95
2023-03-29T05:09:11.346Z,2.99
2023-03-29T05:11:39.963Z,2.89
2023-03-29T05:14:09.522Z,3.17
2023-03-29T05:16:38.114Z,3.11
2023-03-29T05:19:09.415Z,3.08
2023-03-29T05:21:38.610Z,3.08
2023-03-29T05:24:07.507Z,3.16
2023-03-29T05:26:35.970Z,3.06
2023-03-29T05:29:05.338Z,3.09
2023-03-29T05:31:34.047Z,3.11
2023-03-29T05:34:02.533Z,3.03
2023-03-29T05:36:35.491Z,3.06
2023-03-29T05:39:04.856Z,3.12
2023-03-29T05:41:33.641Z,3.08
2023-03-29T05:44:03.324Z,3.30
2023-03-29T05:46:31.777Z,3.25
2023-03-29T05:49:00.202Z,3.24
2023-03-29T05:51:28.790Z,3.22
2023-03-29T05:53:58.591Z,3.45
2023-03-29T05:56:27.509Z,3.52
2023-03-29T05:58:57.025Z,3.51
2023-03-29T06:01:25.978Z,3.70
2023-03-29T06:03:54.865Z,4.01
2023-03-29T06:06:23.498Z,3.84
2023-03-29T06:08:51.934Z,3.67
2023-03-29T06:11:22.362Z,4.37
2023-03-29T06:13:50.897Z,4.08
2023-03-29T06:16:20.155Z,3.92
2023-03-29T06:18:48.798Z,4.41
2023-03-29T06:21:17.241Z,4.43
2023-03-29T06:23:46.150Z,4.44
2023-03-29T06:26:14.891Z,4.84
2023-03-29T06:28:44.714Z,4.47
2023-03-29T06:31:13.246Z,4.67
2023-03-29T06:33:43.243Z,5.32
2023-03-29T06:36:14.031Z,6.05
2023-03-29T06:38:43.066Z,5.98
2023-03-29T06:41:12.261Z,6.09
2023-03-29T06:43:41.115Z,6.21
2023-03-29T06:46:12.351Z,6.25
2023-03-29T06:48:43.008Z,6.78
2023-03-29T06:51:12.031Z,6.57
2023-03-29T06:53:40.527Z,6.42
2023-03-29T06:56:10.154Z,6.66
2023-03-29T06:58:39.195Z,6.81
2023-03-29T07:01:08.445Z,7.11
2023-03-29T07:03:39.897Z,7.09
2023-03-29T07:06:11.724Z,7.24
2023-03-29T07:08:44.163Z,7.38
2023-03-29T07:11:14.264Z,7.45
2023-03-29T07:13:46.545Z,7.71
2023-03-29T07:16:15.543Z,7.84
2023-03-29T07:18:46.133Z,7.93
2023-03-29T07:21:15.052Z,7.89
2023-03-29T07:23:43.642Z,7.91
2023-03-29T07:26:12.146Z,7.89
2023-03-29T07:28:41.311Z,7.98
2023-03-29T07:31:13.083Z,8.09
2023-03-29T07:33:42.244Z,8.26
2023-03-29T07:36:13.916Z,8.33
2023-03-29T07:38:43.111Z,8.31
2023-03-29T07:41:11.634Z,8.30
2023-03-29T07:43:40.149Z,8.32
2023-03-29T07:46:11.234Z,8.42
2023-03-29T07:48:39.781Z,8.43
2023-03-29T07:51:09.227Z,8.47
2023-03-29T07:53:39.955Z,8.39
2023-03-29T07:56:10.570Z,8.48
2023-03-29T07:58:39.018Z,8.66
2023-03-29T08:01:10.951Z,8.71
2023-03-29T08:03:40.769Z,8.77
2023-03-29T08:06:10.304Z,8.73
2023-03-29T08:08:40.326Z,8.74
2023-03-29T08:11:12.878Z,8.92
2023-03-29T08:13:42.011Z,9.02
2023-03-29T08:16:11.287Z,9.02
2023-03-29T08:18:39.747Z,9.01
2023-03-29T08:21:09.089Z,9.12
2023-03-29T08:23:39.174Z,9.12
2023-03-29T08:26:08.687Z,9.07
2023-03-29T08:28:37.156Z,9.27
2023-03-29T08:31:06.035Z,9.38
2023-03-29T08:33:34.606Z,9.40
2023-03-29T08:36:03.207Z,9.44
2023-03-29T08:38:31.836Z,9.62
2023-03-29T08:41:01.871Z,9.72
2023-03-29T08:44:02.613Z,9.77
2023-03-29T08:46:40.314Z,10.00
2023-03-29T08:49:12.204Z,10.04
2023-03-29T08:51:44.949Z,10.29
2023-03-29T08:54:17.950Z,10.46
2023-03-29T08:56:49.740Z,10.50
2023-03-29T08:59:24.624Z,10.16
2023-03-29T09:01:57.216Z,10.47
2023-03-29T09:04:29.680Z,10.60
2023-03-29T09:06:58.290Z,10.53
2023-03-29T09:09:33.727Z,10.69
2023-03-29T09:12:21.226Z,10.74
2023-03-29T09:15:06.740Z,10.87
2023-03-29T09:17:49.812Z,10.98
2023-03-29T09:20:32.135Z,11.17
2023-03-29T09:23:21.115Z,11.24
2023-03-29T09:25:59.636Z,11.19
2023-03-29T09:28:37.214Z,11.55
2023-03-29T09:31:13.817Z,11.58
2023-03-29T09:33:46.075Z,11.49
2023-03-29T09:36:20.068Z,11.43
2023-03-29T09:38:54.237Z,11.02
2023-03-29T09:41:28.328Z,10.91
2023-03-29T09:44:02.001Z,10.72
2023-03-29T09:46:37.630Z,10.39
2023-03-29T09:49:12.398Z,10.36
2023-03-29T09:51:43.470Z,10.41
2023-03-29T09:54:13.341Z,10.22
2023-03-29T09:56:42.273Z,10.17
2023-03-29T09:59:14.192Z,10.14
2023-03-29T10:01:45.965Z,10.22
2023-03-29T10:04:16.746Z,9.98
2023-03-29T10:06:49.501Z,10.12
2023-03-29T10:09:21.598Z,10.28
2023-03-29T10:11:54.619Z,10.29
2023-03-29T10:14:34.563Z,10.32
2023-03-29T10:17:08.752Z,10.36
2023-03-29T10:19:37.418Z,10.37
2023-03-29T10:22:08.996Z,10.34
2023-03-29T10:24:37.488Z,10.49
2023-03-29T10:27:11.764Z,10.66
2023-03-29T10:29:43.840Z,10.69
2023-03-29T10:32:17.955Z,11.04
2023-03-29T10:34:48.170Z,11.03
2023-03-29T10:37:19.669Z,11.02
2023-03-29T10:39:49.657Z,10.87
2023-03-29T10:42:21.449Z,10.87
2023-03-29T10:44:57.640Z,10.97
2023-03-29T10:47:27.194Z,11.29
2023-03-29T10:49:58.904Z,11.55
2023-03-29T10:52:27.760Z,11.96
2023-03-29T10:54:59.293Z,11.83
2023-03-29T10:57:40.926Z,11.74
2023-03-29T11:00:19.758Z,11.76
2023-03-29T11:03:21.776Z,11.70
2023-03-29T11:05:58.374Z,11.93
2023-03-29T11:08:47.340Z,11.64
2023-03-29T11:11:41.339Z,11.86
2023-03-29T11:14:22.187Z,12.06
2023-03-29T11:17:09.441Z,12.05
2023-03-29T11:20:05.257Z,11.78
2023-03-29T11:22:43.858Z,11.78
2023-03-29T11:25:29.795Z,11.43
2023-03-29T11:28:07.637Z,11.54
2023-03-29T11:30:43.557Z,11.52
2023-03-29T11:33:34.202Z,11.55
2023-03-29T11:36:11.362Z,11.48
2023-03-29T11:38:45.286Z,11.65
2023-03-29T11:41:18.782Z,11.48
2023-03-29T11:43:53.682Z,11.83
2023-03-29T11:46:30.069Z,12.06
2023-03-29T11:49:06.449Z,12.16
2023-03-29T11:51:39.776Z,12.54
2023-03-29T11:54:19.086Z,12.47
2023-03-29T11:56:53.415Z,12.51
2023-03-29T11:59:29.491Z,12.17
2023-03-29T12:02:06.647Z,12.51
2023-03-29T12:04:43.915Z,12.35
2023-03-29T12:07:18.000Z,12.37
2023-03-29T12:09:51.691Z,12.41
2023-03-29T12:12:27.516Z,12.19
2023-03-29T12:15:02.679Z,12.16
2023-03-29T12:17:37.407Z,12.20
2023-03-29T12:20:16.887Z,12.38
2023-03-29T12:22:49.101Z,12.86
2023-03-29T12:25:23.276Z,13.28
2023-03-29T12:28:27.291Z,13.36
2023-03-29T12:31:09.373Z,13.90
2023-03-29T12:34:19.006Z,13.74
2023-03-29T12:37:17.693Z,13.79
2023-03-29T12:39:46.422Z,13.95
2023-03-29T12:42:18.656Z,14.23
2023-03-29T12:44:51.874Z,13.84
2023-03-29T12:47:25.434Z,14.04
2023-03-29T12:49:57.853Z,15.09
2023-03-29T12:52:33.235Z,14.09
2023-03-29T12:55:05.562Z,13.98
2023-03-29T12:57:42.749Z,13.91
2023-03-29T13:00:33.569Z,14.33
2023-03-29T13:03:19.994Z,14.59
2023-03-29T13:06:00.550Z,14.74
2023-03-29T13:08:38.034Z,14.77
2023-03-29T13:11:08.292Z,14.33
2023-03-29T13:13:39.509Z,14.14
2023-03-29T13:16:15.917Z,14.52
2023-03-29T13:19:08.416Z,14.02
2023-03-29T13:21:53.913Z,13.93
2023-03-29T13:24:53.932Z,14.78
2023-03-29T13:27:34.196Z,14.81
2023-03-29T13:30:22.821Z,15.07
2023-03-29T13:33:06.655Z,14.82
2023-03-29T13:35:47.292Z,14.30
2023-03-29T13:38:21.572Z,14.63
2023-03-29T13:41:04.714Z,14.20
2023-03-29T13:43:49.626Z,14.13
2023-03-29T13:46:27.079Z,14.19
2023-03-29T13:49:18.227Z,13.99
2023-03-29T13:52:04.564Z,14.29
2023-03-29T13:54:38.775Z,14.65
2023-03-29T13:57:15.012Z,14.48
2023-03-29T13:59:52.893Z,14.58
2023-03-29T14:02:33.999Z,15.13
2023-03-29T14:05:04.324Z,14.98
2023-03-29T14:07:35.335Z,14.51
2023-03-29T14:10:05.277Z,14.94
2023-03-29T14:12:41.979Z,14.53
2023-03-29T14:15:24.694Z,14.33
2023-03-29T14:18:00.222Z,14.80
2023-03-29T14:20:31.849Z,14.63
2023-03-29T14:23:00.513Z,14.74
2023-03-29T14:25:30.781Z,14.72
2023-03-29T14:28:00.606Z,14.87
2023-03-29T14:30:32.049Z,14.96
2023-03-29T14:33:05.240Z,14.61
2023-03-29T14:35:34.922Z,14.68
2023-03-29T14:38:03.726Z,14.54
2023-03-29T14:40:32.663Z,14.64
2023-03-29T14:43:08.044Z,14.68
2023-03-29T14:45:36.819Z,15.25
2023-03-29T14:48:06.303Z,14.73
2023-03-29T14:50:36.443Z,14.83
2023-03-29T14:53:06.858Z,14.73
2023-03-29T14:55:36.700Z,14.56
2023-03-29T14:58:21.841Z,14.45
2023-03-29T15:00:53.354Z,14.73
2023-03-29T15:03:26.332Z,14.66
2023-03-29T15:05:59.114Z,14.84
2023-03-29T15:08:34.194Z,14.80
2023-03-29T15:11:04.125Z,14.81
2023-03-29T15:13:36.424Z,14.56
2023-03-29T15:16:08.361Z,14.45
2023-03-29T15:18:40.624Z,14.52
2023-03-29T15:21:11.816Z,14.45
2023-03-29T15:23:42.612Z,14.35
2023-03-29T15:26:15.858Z,14.35
2023-03-29T15:28:55.066Z,14.35
2023-03-29T15:31:34.886Z,14.42
2023-03-29T15:34:07.636Z,14.38
2023-03-29T15:36:43.250Z,14.38
2023-03-29T15:39:14.580Z,14.21
2023-03-29T15:41:43.242Z,14.22
2023-03-29T15:44:17.353Z,14.07
2023-03-29T15:46:46.000Z,14.09
2023-03-29T15:49:15.865Z,14.00
2023-03-29T15:51:44.356Z,13.99
2023-03-29T15:54:12.953Z,13.88
2023-03-29T15:56:49.878Z,13.85
2023-03-29T15:59:19.955Z,13.89
2023-03-29T16:01:48.895Z,13.92
2023-03-29T16:04:19.796Z,13.84
2023-03-29T16:06:52.867Z,13.77
2023-03-29T16:09:22.180Z,13.80
2023-03-29T16:11:51.719Z,13.75
2023-03-29T16:14:25.439Z,13.71
2023-03-29T16:16:55.736Z,13.70
2023-03-29T16:19:25.165Z,13.41
2023-03-29T16:21:54.524Z,13.51
2023-03-29T16:24:25.245Z,13.46
2023-03-29T16:26:55.959Z,13.50
2023-03-29T16:29:26.930Z,13.51
2023-03-29T16:31:56.379Z,13.37
2023-03-29T16:34:25.525Z,13.17
2023-03-29T16:36:54.280Z,13.15
2023-03-29T16:39:22.934Z,13.21
2023-03-29T16:41:51.436Z,13.15
2023-03-29T16:44:23.605Z,13.12
2023-03-29T16:46:57.476Z,13.11
2023-03-29T16:49:26.161Z,13.02
2023-03-29T16:51:54.748Z,13.04
2023-03-29T16:54:26.033Z,13.04
2023-03-29T16:56:54.524Z,12.96
2023-03-29T16:59:23.292Z,12.98
2023-03-29T17:01:53.218Z,12.89
2023-03-29T17:04:21.872Z,12.80
2023-03-29T17:06:50.598Z,12.79
2023-03-29T17:09:19.086Z,12.59
2023-03-29T17:11:47.597Z,12.65
2023-03-29T17:14:16.153Z,12.72
2023-03-29T17:16:44.873Z,12.57
2023-03-29T17:19:14.750Z,12.35
2023-03-29T17:21:43.613Z,12.27
2023-03-29T17:24:12.057Z,12.43
2023-03-29T17:26:40.467Z,12.27
2023-03-29T17:29:08.979Z,12.15
2023-03-29T17:31:41.102Z,12.05
2023-03-29T17:34:09.627Z,11.96
2023-03-29T17:36:41.244Z,11.39
2023-03-29T17:39:11.024Z,10.81
2023-03-29T17:41:39.615Z,10.49
2023-03-29T17:44:08.267Z,10.39
2023-03-29T17:46:37.917Z,10.27
2023-03-29T17:49:06.776Z,10.21
2023-03-29T17:51:35.365Z,9.99
2023-03-29T17:54:06.161Z,9.58
2023-03-29T17:56:35.019Z,9.46
2023-03-29T17:59:03.496Z,9.56
2023-03-29T18:01:32.862Z,9.22
2023-03-29T18:04:01.358Z,9.35
2023-03-29T18:06:29.842Z,9.64
2023-03-29T18:09:01.391Z,9.28
2023-03-29T18:11:32.380Z,9.42
2023-03-29T18:14:01.669Z,9.33
2023-03-29T18:16:30.177Z,9.50
2023-03-29T18:18:58.646Z,9.41
2023-03-29T18:21:27.516Z,9.22
2023-03-29T18:23:56.992Z,9.37
2023-03-29T18:26:25.858Z,9.51
2023-03-29T18:28:55.759Z,9.28
2023-03-29T18:31:24.534Z,9.57
2023-03-29T18:33:53.030Z,10.15
2023-03-29T18:36:22.028Z,10.13
2023-03-29T18:38:50.508Z,10.90
2023-03-29T18:41:18.923Z,11.04
2023-03-29T18:43:47.763Z,11.02
2023-03-29T18:46:17.692Z,11.51
2023-03-29T18:48:46.577Z,11.23
2023-03-29T18:51:15.064Z,11.23
2023-03-29T18:53:44.431Z,11.34
2023-03-29T18:56:12.967Z,11.35
2023-03-29T18:58:41.517Z,11.35
2023-03-29T19:01:10.947Z,11.54
2023-03-29T19:03:41.801Z,11.63
2023-03-29T19:06:12.040Z,11.48
2023-03-29T19:08:41.366Z,11.35
2023-03-29T19:11:14.507Z,11.32
2023-03-29T19:13:43.227Z,11.32
2023-03-29T19:16:12.254Z,11.21
2023-03-29T19:18:42.199Z,11.17
2023-03-29T19:21:11.075Z,11.25
2023-03-29T19:23:39.947Z,11.32
2023-03-29T19:26:09.186Z,11.31
2023-03-29T19:28:38.093Z,11.14
2023-03-29T19:31:07.179Z,11.33
2023-03-29T19:33:35.644Z,11.45
2023-03-29T19:36:06.226Z,11.44
2023-03-29T19:38:34.947Z,11.57
2023-03-29T19:41:03.468Z,11.69
2023-03-29T19:43:31.936Z,11.80
2023-03-29T19:46:08.391Z,11.79
2023-03-29T19:48:37.075Z,11.63
2023-03-29T19:51:08.194Z,11.70
2023-03-29T19:53:38.734Z,11.56
2023-03-29T19:56:11.102Z,11.60
2023-03-29T19:58:39.683Z,11.55
2023-03-29T20:01:08.189Z,11.84
2023-03-29T20:03:36.797Z,11.61
2023-03-29T20:06:08.140Z,11.63
2023-03-29T20:08:38.884Z,11.62
2023-03-29T20:11:10.151Z,11.66
2023-03-29T20:13:39.897Z,11.73
2023-03-29T20:16:10.209Z,11.92
2023-03-29T20:18:39.541Z,11.70
2023-03-29T20:21:10.559Z,11.81
2023-03-29T20:23:39.585Z,11.72
2023-03-29T20:26:08.617Z,11.86
2023-03-29T20:28:38.002Z,11.66
2023-03-29T20:31:10.526Z,11.70
2023-03-29T20:33:39.808Z,11.63
2023-03-29T20:36:10.085Z,11.57
2023-03-29T20:38:38.688Z,11.54
2023-03-29T20:41:09.546Z,11.42
2023-03-29T20:43:38.384Z,11.37
2023-03-29T20:46:14.647Z,11.33
2023-03-29T20:48:46.084Z,11.43
2023-03-29T20:51:18.420Z,11.22
2023-03-29T20:53:46.965Z,11.17
2023-03-29T20:56:16.064Z,10.87
2023-03-29T20:58:44.579Z,10.47
2023-03-29T21:01:14.313Z,10.52
2023-03-29T21:03:43.350Z,10.21
2023-03-29T21:06:14.054Z,10.14
2023-03-29T21:08:45.643Z,9.71
2023-03-29T21:11:16.324Z,9.46
2023-03-29T21:13:45.582Z,9.48
2023-03-29T21:16:14.466Z,9.43
2023-03-29T21:18:43.460Z,9.20
2023-03-29T21:21:12.986Z,8.99
2023-03-29T21:23:41.456Z,8.98
2023-03-29T21:26:11.381Z,9.15
2023-03-29T21:28:41.045Z,9.22
2023-03-29T21:31:10.339Z,9.02
2023-03-29T21:33:38.809Z,8.77
2023-03-29T21:36:08.307Z,8.59
2023-03-29T21:38:36.860Z,8.61
2023-03-29T21:41:06.915Z,8.60
2023-03-29T21:43:36.745Z,8.81
2023-03-29T21:46:05.601Z,8.23
2023-03-29T21:48:34.509Z,8.48
2023-03-29T21:51:03.501Z,8.35
2023-03-29T21:53:32.154Z,8.37
2023-03-29T21:56:00.691Z,8.43
2023-03-29T21:58:29.166Z,8.26
2023-03-29T22:00:59.056Z,8.13
2023-03-29T22:03:27.800Z,8.14
2023-03-29T22:06:02.701Z,8.46
2023-03-29T22:08:31.804Z,8.33
2023-03-29T22:11:08.243Z,8.36
2023-03-29T22:13:37.238Z,8.43
2023-03-29T22:16:09.190Z,8.13
2023-03-29T22:18:47.011Z,8.21
2023-03-29T22:21:19.669Z,8.46
2023-03-29T22:23:50.922Z,8.25
2023-03-29T22:26:23.574Z,8.07
2023-03-29T22:28:52.801Z,8.03
2023-03-29T22:31:25.109Z,8.20
2023-03-29T22:33:54.409Z,8.22
2023-03-29T22:36:25.179Z,8.11
2023-03-29T22:38:54.507Z,8.23
2023-03-29T22:41:25.296Z,8.17
2023-03-29T22:43:55.857Z,8.13
2023-03-29T22:46:26.770Z,8.12
2023-03-29T22:48:55.330Z,8.08
2023-03-29T22:51:24.121Z,8.00
2023-03-29T22:53:52.646Z,8.08
2023-03-29T22:56:22.055Z,8.16
2023-03-29T22:58:51.089Z,8.24
2023-03-29T23:01:19.856Z,8.25
2023-03-29T23:03:49.944Z,8.22
2023-03-29T23:06:18.392Z,8.20
2023-03-29T23:08:46.857Z,8.45
2023-03-29T23:11:15.334Z,8.87
2023-03-29T23:13:43.800Z,8.52
2023-03-29T23:16:12.366Z,8.69
2023-03-29T23:18:40.958Z,8.68
2023-03-29T23:21:11.038Z,9.06
2023-03-29T23:23:39.808Z,9.25
2023-03-29T23:26:10.590Z,9.35
2023-03-29T23:28:39.125Z,9.94
2023-03-29T23:31:10.772Z,10.21
2023-03-29T23:33:41.412Z,10.22
2023-03-29T23:36:14.336Z,10.17
2023-03-29T23:38:44.656Z,10.14
2023-03-29T23:41:17.058Z,10.04
2023-03-29T23:43:47.186Z,9.96
2023-03-29T23:46:19.100Z,9.95
2023-03-29T23:48:49.053Z,9.53
2023-03-29T23:51:23.403Z,9.17
2023-03-29T23:53:52.370Z,9.07
2023-03-29T23:56:21.568Z,8.96
2023-03-29T23:58:50.566Z,9.19
